createdAt,value
2019-05-17T00:03:37.151Z,26.20
2019-05-17T00:05:57.179Z,27.80
2019-05-17T00:08:29.810Z,27.93
2019-05-17T00:10:38.884Z,27.80
2019-05-17T00:43:23.517Z,25.72
2019-05-17T00:45:43.430Z,27.60
2019-05-17T00:48:03.489Z,26.80
2019-05-17T00:50:23.643Z,25.48
2019-05-17T00:52:43.680Z,24.98
2019-05-17T00:55:06.773Z,24.40
2019-05-17T00:57:27.452Z,26.42
2019-05-17T00:59:47.731Z,27.25
2019-05-17T01:02:07.802Z,27.27
2019-05-17T01:04:27.726Z,25.77
2019-05-17T01:06:47.867Z,24.05
2019-05-17T01:09:08.159Z,26.77
2019-05-17T01:11:28.203Z,27.15
2019-05-17T01:13:48.208Z,23.80
2019-05-17T01:16:08.262Z,24.30
2019-05-17T01:18:28.185Z,23.10
2019-05-17T01:20:48.197Z,22.75
2019-05-17T01:23:08.188Z,27.65
2019-05-17T01:25:27.877Z,23.55
2019-05-17T01:30:08.994Z,21.30
2019-05-17T01:32:29.271Z,22.22
2019-05-17T01:34:49.271Z,24.70
2019-05-17T01:37:09.007Z,22.05
2019-05-17T01:39:29.263Z,24.60
2019-05-17T01:41:49.386Z,22.60
2019-05-17T01:44:09.103Z,21.33
2019-05-17T01:46:28.960Z,21.70
2019-05-17T01:48:49.033Z,24.27
2019-05-17T01:51:10.046Z,23.35
2019-05-17T01:53:29.822Z,20.25
2019-05-17T01:55:49.591Z,21.87
2019-05-17T01:58:09.586Z,24.57
2019-05-17T02:00:30.045Z,22.23
2019-05-17T02:02:52.042Z,21.30
2019-05-17T02:05:13.278Z,24.37
2019-05-17T02:07:33.799Z,26.82
2019-05-17T02:09:53.518Z,21.33
2019-05-17T02:12:13.407Z,25.32
2019-05-17T02:14:33.085Z,23.47
2019-05-17T02:21:32.563Z,23.50
2019-05-17T02:23:52.494Z,24.10
2019-05-17T02:26:13.475Z,23.70
2019-05-17T02:28:33.793Z,20.70
2019-05-17T02:33:14.954Z,21.20
2019-05-17T04:20:52.517Z,20.90
2019-05-17T04:25:33.381Z,19.25
2019-05-17T18:08:07.255Z,17.55
2019-05-17T18:10:29.972Z,15.00
2019-05-17T18:12:50.349Z,15.80
2019-05-17T18:15:11.472Z,13.70
2019-05-17T18:17:39.022Z,16.30
2019-05-17T18:22:26.500Z,13.72
2019-05-17T18:24:46.562Z,14.67
2019-05-17T18:27:06.888Z,15.30
2019-05-17T18:31:47.890Z,15.70
2019-05-17T18:36:28.896Z,16.15
2019-05-17T18:38:52.297Z,16.25
2019-05-17T21:20:29.467Z,16.10
2019-05-17T21:22:49.246Z,20.33
2019-05-17T21:25:09.554Z,17.35
2019-05-17T21:48:32.361Z,13.30
2019-05-17T21:50:52.270Z,12.30
2019-05-17T22:00:15.318Z,11.70
2019-05-17T23:38:18.848Z,12.30
2019-05-17T23:49:58.900Z,17.90
2019-05-17T23:56:59.112Z,16.20
